Time;durP1;ratioP1;P1;durP2;ratioP2;P2;SDS_P1;SDS_P2;PMS_P1;PMS_P2;Temp;Humidity;BMP_temperature;BMP_pressure;BME280_temperature;BME280_humidity;BME280_pressure;Samples;Min_cycle;Max_cycle;Signal;HPM_P1;HPM_P2
2022/05/13 00:01:53;;;;;;;6.87;3.23;;;10.70;99.90;;;;;;5067614;28;20095;-78
2022/05/13 00:04:19;;;;;;;5.43;3.03;;;10.70;99.90;;;;;;5066745;28;20045;-79
2022/05/13 00:06:45;;;;;;;7.07;3.57;;;10.70;99.90;;;;;;5067047;28;20033;-79
2022/05/13 00:09:11;;;;;;;5.93;3.20;;;10.70;99.90;;;;;;5065020;28;20044;-78
2022/05/13 00:11:37;;;;;;;8.53;3.60;;;10.70;99.90;;;;;;5069489;28;20048;-79
2022/05/13 00:14:04;;;;;;;7.63;3.57;;;10.70;99.90;;;;;;5067228;28;20379;-78
2022/05/13 00:16:30;;;;;;;5.87;3.17;;;10.70;99.90;;;;;;5064776;28;20090;-78
2022/05/13 00:18:55;;;;;;;6.30;3.27;;;10.70;99.90;;;;;;5068168;28;20041;-79
2022/05/13 00:21:22;;;;;;;4.87;4.10;;;10.70;99.90;;;;;;5065294;28;20040;-78
2022/05/13 00:23:47;;;;;;;7.07;3.27;;;10.60;99.90;;;;;;5066511;28;20052;-76
2022/05/13 00:26:13;;;;;;;6.77;3.40;;;10.60;99.90;;;;;;5040493;28;20045;-79
2022/05/13 00:28:39;;;;;;;8.90;4.00;;;10.60;99.90;;;;;;5048093;28;20036;-80
2022/05/13 00:31:05;;;;;;;6.37;3.70;;;10.60;99.90;;;;;;5050417;28;20048;-79
2022/05/13 00:33:32;;;;;;;8.80;5.63;;;10.60;99.90;;;;;;5063503;28;20052;-79
2022/05/13 00:35:58;;;;;;;6.60;3.97;;;10.60;99.90;;;;;;5050055;28;20048;-78
2022/05/13 00:38:24;;;;;;;7.53;4.13;;;10.60;99.90;;;;;;5066613;28;20096;-78
2022/05/13 00:40:49;;;;;;;8.80;4.37;;;10.60;99.90;;;;;;5039055;28;20044;-76
2022/05/13 00:43:41;;;;;;;7.00;4.27;;;10.70;99.90;;;;;;5067669;28;20062;-78
2022/05/13 00:46:06;;;;;;;7.40;4.10;;;10.80;99.90;;;;;;5064912;28;20048;-79
2022/05/13 00:48:32;;;;;;;7.37;3.67;;;10.80;99.90;;;;;;5067182;28;20052;-78
2022/05/13 00:50:58;;;;;;;5.77;3.80;;;10.80;99.90;;;;;;5065308;28;20116;-78
2022/05/13 00:53:24;;;;;;;8.13;4.50;;;10.90;99.90;;;;;;5066194;28;20036;-78
2022/05/13 00:55:52;;;;;;;6.10;4.00;;;10.90;99.90;;;;;;5064342;28;20110;-78
2022/05/13 00:58:19;;;;;;;9.93;4.30;;;10.90;99.90;;;;;;5066638;28;20047;-78
2022/05/13 01:00:46;;;;;;;6.03;4.30;;;10.90;99.90;;;;;;5068261;28;20048;-78
2022/05/13 01:03:13;;;;;;;6.37;3.90;;;10.90;99.90;;;;;;5065722;28;20644;-78
2022/05/13 01:05:41;;;;;;;5.37;4.17;;;11.00;99.90;;;;;;5051236;28;20036;-77
2022/05/13 01:08:08;;;;;;;8.30;4.20;;;11.00;99.90;;;;;;5063565;28;20037;-79
2022/05/13 01:10:36;;;;;;;5.03;3.90;;;11.00;99.90;;;;;;5063849;28;20100;-78
2022/05/13 01:13:07;;;;;;;8.67;4.60;;;11.10;99.90;;;;;;5065344;28;20032;-79
2022/05/13 01:15:40;;;;;;;8.17;4.30;;;11.10;99.90;;;;;;5065044;28;20650;-79
2022/05/13 01:18:06;;;;;;;6.83;4.47;;;11.10;99.90;;;;;;5067041;28;20084;-78
2022/05/13 01:20:50;;;;;;;7.57;4.27;;;11.10;99.90;;;;;;5062658;28;20053;-79
2022/05/13 01:23:25;;;;;;;8.57;4.50;;;11.10;99.90;;;;;;5048325;28;20044;-78
2022/05/13 01:25:54;;;;;;;8.23;4.40;;;11.10;99.90;;;;;;5061466;28;20055;-78
2022/05/13 01:28:29;;;;;;;6.57;4.60;;;11.10;99.90;;;;;;5065398;28;20107;-77
2022/05/13 01:30:58;;;;;;;6.87;4.57;;;11.10;99.90;;;;;;5064198;28;20044;-77
2022/05/13 01:33:24;;;;;;;10.23;5.17;;;11.10;99.90;;;;;;5049878;28;20640;-77
2022/05/13 01:35:54;;;;;;;8.73;4.57;;;11.10;99.90;;;;;;5064261;28;20040;-77
2022/05/13 01:38:22;;;;;;;8.30;4.90;;;11.20;99.90;;;;;;5061671;28;20112;-77
2022/05/13 01:40:48;;;;;;;9.03;4.20;;;11.20;99.90;;;;;;5066427;28;20072;-77
2022/05/13 01:43:14;;;;;;;5.47;4.63;;;11.20;99.90;;;;;;5064959;28;20055;-77
2022/05/13 01:45:40;;;;;;;6.77;4.20;;;11.20;99.90;;;;;;5065127;28;20036;-77
2022/05/13 01:48:07;;;;;;;10.90;4.23;;;11.20;99.90;;;;;;5063670;28;20117;-79
2022/05/13 01:50:34;;;;;;;10.00;6.03;;;11.20;99.90;;;;;;5064646;28;20059;-77
2022/05/13 01:53:00;;;;;;;5.27;4.03;;;11.20;99.90;;;;;;5066920;28;20048;-75
2022/05/13 01:55:26;;;;;;;7.73;4.30;;;11.20;99.90;;;;;;5064856;28;20063;-76
2022/05/13 01:57:52;;;;;;;10.47;4.67;;;11.20;99.90;;;;;;5058564;28;20128;-77
2022/05/13 02:00:18;;;;;;;6.90;4.37;;;11.20;99.90;;;;;;5062730;28;20075;-77
2022/05/13 02:05:29;;;;;;;5.57;3.83;;;11.30;99.90;;;;;;5066667;28;20045;-77
2022/05/13 02:07:54;;;;;;;9.43;4.33;;;11.30;99.90;;;;;;5062837;28;20041;-77
2022/05/13 02:10:21;;;;;;;9.30;4.00;;;11.30;99.90;;;;;;5063844;28;20096;-76
2022/05/13 02:12:47;;;;;;;8.07;4.10;;;11.30;99.90;;;;;;5064702;28;20059;-76
2022/05/13 02:15:12;;;;;;;6.93;4.23;;;11.30;99.90;;;;;;5065112;28;20040;-76
2022/05/13 02:17:38;;;;;;;6.97;3.87;;;11.40;99.90;;;;;;5062512;28;20072;-76
2022/05/13 02:20:06;;;;;;;7.83;3.83;;;11.40;99.90;;;;;;5066261;28;20049;-76
2022/05/13 02:22:31;;;;;;;7.30;3.93;;;11.40;99.90;;;;;;5065224;28;20044;-76
2022/05/13 02:24:57;;;;;;;7.53;4.13;;;11.40;99.90;;;;;;5064721;28;20070;-77
2022/05/13 02:27:23;;;;;;;8.13;3.80;;;11.40;99.90;;;;;;5066102;28;20040;-76
2022/05/13 02:29:48;;;;;;;6.63;3.53;;;11.40;99.90;;;;;;5063500;28;20033;-76
2022/05/13 02:32:14;;;;;;;6.90;3.57;;;11.40;99.90;;;;;;5065878;28;20040;-76
2022/05/13 02:34:40;;;;;;;7.53;3.77;;;11.40;99.90;;;;;;5048998;28;20104;-77
2022/05/13 02:37:06;;;;;;;9.10;3.77;;;11.40;99.90;;;;;;5061798;28;20086;-77
2022/05/13 02:39:31;;;;;;;8.37;3.63;;;11.40;99.90;;;;;;5063540;28;20051;-76
2022/05/13 02:41:57;;;;;;;8.53;4.10;;;11.50;99.90;;;;;;5066145;28;20041;-76
2022/05/13 02:44:23;;;;;;;7.60;3.30;;;11.50;99.90;;;;;;5051159;28;20045;-76
2022/05/13 02:46:49;;;;;;;6.70;3.70;;;11.50;99.90;;;;;;5063220;28;20067;-77
2022/05/13 02:49:15;;;;;;;8.73;4.17;;;11.50;99.90;;;;;;5066610;28;20120;-77
2022/05/13 02:51:45;;;;;;;8.07;4.47;;;11.50;99.90;;;;;;5063317;28;20091;-76
2022/05/13 02:54:10;;;;;;;8.30;3.90;;;11.50;99.90;;;;;;5065386;28;20055;-76
2022/05/13 02:56:36;;;;;;;10.30;4.33;;;11.40;99.90;;;;;;5066542;28;20084;-76
2022/05/13 02:59:02;;;;;;;8.70;4.00;;;11.50;99.90;;;;;;5062752;28;20040;-77
2022/05/13 03:01:28;;;;;;;7.43;3.50;;;11.40;99.90;;;;;;5063411;28;20045;-77
2022/05/13 03:03:54;;;;;;;9.23;3.80;;;11.40;99.90;;;;;;5062646;28;20068;-77
2022/05/13 03:06:20;;;;;;;8.63;3.77;;;11.40;99.90;;;;;;5067034;28;20072;-77
2022/05/13 03:08:47;;;;;;;11.30;4.07;;;11.30;99.90;;;;;;5063045;28;20048;-77
2022/05/13 03:11:14;;;;;;;9.30;3.63;;;11.40;99.90;;;;;;5053456;28;20052;-76
2022/05/13 03:13:40;;;;;;;8.57;3.97;;;11.40;99.90;;;;;;5050064;28;20051;-78
2022/05/13 03:16:10;;;;;;;8.10;4.03;;;11.40;99.90;;;;;;5066515;28;20048;-77
2022/05/13 03:18:40;;;;;;;7.17;3.63;;;11.40;99.90;;;;;;5070103;28;20079;-77
2022/05/13 03:21:06;;;;;;;8.40;3.90;;;11.30;99.90;;;;;;5065664;28;20052;-77
2022/05/13 03:23:32;;;;;;;7.30;3.77;;;11.30;99.90;;;;;;5048734;28;20041;-76
2022/05/13 03:25:58;;;;;;;8.10;4.03;;;11.30;99.90;;;;;;5067107;28;20517;-77
2022/05/13 03:28:24;;;;;;;10.13;3.87;;;11.40;99.90;;;;;;5053064;28;20040;-77
2022/05/13 03:30:50;;;;;;;10.67;4.10;;;11.30;99.90;;;;;;5069355;28;20044;-77
2022/05/13 03:33:17;;;;;;;7.07;4.13;;;11.40;99.90;;;;;;5069486;28;20122;-76
2022/05/13 03:35:43;;;;;;;8.77;3.57;;;11.30;99.90;;;;;;5069671;28;20098;-77
2022/05/13 03:38:09;;;;;;;9.97;3.87;;;11.30;99.90;;;;;;5066925;28;20048;-76
2022/05/13 03:40:36;;;;;;;7.93;4.50;;;11.30;99.90;;;;;;5068273;28;20049;-76
2022/05/13 03:43:03;;;;;;;9.70;4.20;;;11.30;99.90;;;;;;5064125;28;20053;-77
2022/05/13 03:45:30;;;;;;;9.40;3.70;;;11.30;99.90;;;;;;5070149;28;20041;-76
2022/05/13 03:47:56;;;;;;;10.67;4.17;;;11.30;99.90;;;;;;5068266;28;20424;-77
2022/05/13 03:50:22;;;;;;;10.40;4.13;;;11.30;99.90;;;;;;5068203;28;20037;-77
2022/05/13 03:52:48;;;;;;;10.43;4.00;;;11.30;99.90;;;;;;5067103;28;20100;-77
2022/05/13 03:55:14;;;;;;;10.40;3.87;;;11.30;99.90;;;;;;5049725;28;20087;-76
2022/05/13 03:57:40;;;;;;;10.50;4.00;;;11.30;99.90;;;;;;5067986;28;20053;-77
2022/05/13 04:00:09;;;;;;;10.10;4.00;;;11.30;99.90;;;;;;5067559;28;20085;-77
2022/05/13 04:02:35;;;;;;;11.20;4.20;;;11.30;99.90;;;;;;5069045;28;20152;-77
2022/05/13 04:10:30;;;;;;;7.50;4.10;;;11.30;99.90;;;;;;5069053;28;20132;-76
2022/05/13 04:18:24;;;;;;;8.40;4.13;;;11.30;99.90;;;;;;5065190;28;20541;-79
2022/05/13 04:20:50;;;;;;;9.57;4.27;;;11.30;99.90;;;;;;5063152;28;20131;-78
2022/05/13 04:23:18;;;;;;;9.20;3.63;;;11.30;99.90;;;;;;5067567;28;20051;-79
2022/05/13 04:25:44;;;;;;;12.70;4.23;;;11.40;99.90;;;;;;5065595;28;20453;-78
2022/05/13 04:28:10;;;;;;;13.57;4.23;;;11.40;99.90;;;;;;5066393;28;20040;-77
2022/05/13 04:30:36;;;;;;;10.60;4.17;;;11.30;99.90;;;;;;5065413;28;20090;-78
2022/05/13 04:33:02;;;;;;;10.07;3.90;;;11.30;99.90;;;;;;5049210;28;20875;-77
2022/05/13 04:35:28;;;;;;;13.20;4.07;;;11.30;99.90;;;;;;5065018;28;20480;-77
2022/05/13 04:37:54;;;;;;;10.97;3.80;;;11.40;99.90;;;;;;5066463;28;20104;-78
2022/05/13 04:40:19;;;;;;;9.13;4.53;;;11.30;99.90;;;;;;5067555;28;20232;-77
2022/05/13 04:42:51;;;;;;;11.70;3.73;;;11.40;99.90;;;;;;5064174;28;20033;-79
2022/05/13 04:45:25;;;;;;;12.38;4.00;;;11.40;99.90;;;;;;5064921;28;20048;-78
2022/05/13 04:48:18;;;;;;;12.67;4.07;;;11.40;99.90;;;;;;5063725;28;20044;-79
2022/05/13 04:50:46;;;;;;;;;;;11.40;99.90;;;;;;5064499;28;20053;-78
2022/05/13 04:53:13;;;;;;;12.93;3.80;;;11.40;99.90;;;;;;5068324;28;19925;-77
2022/05/13 04:55:40;;;;;;;12.00;4.10;;;11.40;99.90;;;;;;5066554;28;20049;-77
2022/05/13 04:58:06;;;;;;;10.07;3.87;;;11.40;99.90;;;;;;5065127;28;20080;-77
2022/05/13 05:00:32;;;;;;;10.73;4.10;;;11.40;99.90;;;;;;5065016;28;20063;-77
2022/05/13 05:02:58;;;;;;;10.07;3.90;;;11.50;99.90;;;;;;5048579;28;20045;-76
2022/05/13 05:05:24;;;;;;;12.97;4.40;;;11.50;99.90;;;;;;5069205;28;20039;-76
2022/05/13 05:07:49;;;;;;;11.23;4.27;;;11.50;99.90;;;;;;5072177;28;20104;-76
2022/05/13 05:10:18;;;;;;;14.43;4.53;;;11.50;99.90;;;;;;5046233;28;20041;-77
2022/05/13 05:12:45;;;;;;;11.83;4.03;;;11.50;99.90;;;;;;5073131;28;20091;-75
2022/05/13 05:15:11;;;;;;;13.03;4.53;;;11.50;99.90;;;;;;5049407;28;20055;-75
2022/05/13 05:17:36;;;;;;;11.33;4.30;;;11.60;99.90;;;;;;5031374;28;20044;-75
2022/05/13 05:20:05;;;;;;;12.33;4.40;;;11.60;99.90;;;;;;5065919;28;20044;-78
2022/05/13 05:22:30;;;;;;;10.43;4.73;;;11.60;99.90;;;;;;5064025;28;20079;-78
2022/05/13 05:24:56;;;;;;;16.83;4.83;;;11.70;99.90;;;;;;5060683;28;20048;-77
2022/05/13 05:27:22;;;;;;;13.33;4.50;;;11.70;99.90;;;;;;5066137;28;20029;-77
2022/05/13 05:29:48;;;;;;;11.13;4.57;;;11.70;99.90;;;;;;5063690;28;20080;-77
2022/05/13 05:32:13;;;;;;;15.97;4.43;;;11.70;99.90;;;;;;5065389;28;20132;-77
2022/05/13 05:34:39;;;;;;;13.20;4.23;;;11.80;99.90;;;;;;5055821;28;20642;-79
2022/05/13 05:37:05;;;;;;;11.40;4.30;;;11.80;99.90;;;;;;5064967;28;20068;-77
2022/05/13 05:39:31;;;;;;;11.13;3.83;;;11.90;99.90;;;;;;5065975;28;20465;-77
2022/05/13 05:41:56;;;;;;;17.20;4.57;;;11.90;99.90;;;;;;5071129;28;20037;-76
2022/05/13 05:44:22;;;;;;;11.83;4.27;;;12.00;99.90;;;;;;5064394;28;20045;-76
2022/05/13 05:46:48;;;;;;;14.23;4.27;;;12.10;99.90;;;;;;5061400;28;20044;-76
2022/05/13 05:49:13;;;;;;;14.57;4.27;;;12.10;99.90;;;;;;5067598;28;20087;-76
2022/05/13 05:51:39;;;;;;;13.40;5.00;;;12.20;99.90;;;;;;5061551;28;20045;-77
2022/05/13 05:59:33;;;;;;;14.17;4.03;;;12.30;99.90;;;;;;5065607;28;20076;-76
2022/05/13 06:01:59;;;;;;;12.83;4.10;;;12.30;99.90;;;;;;5068155;28;20887;-76
2022/05/13 06:04:25;;;;;;;9.47;4.30;;;12.40;99.90;;;;;;5065531;28;20043;-76
2022/05/13 06:06:50;;;;;;;11.27;4.37;;;12.70;99.90;;;;;;5061017;28;20132;-76
2022/05/13 06:09:17;;;;;;;13.27;4.40;;;12.80;99.90;;;;;;5059041;28;20771;-77
2022/05/13 06:11:43;;;;;;;15.27;4.17;;;13.00;99.90;;;;;;5071614;28;20053;-76
2022/05/13 06:14:11;;;;;;;10.30;4.57;;;13.10;99.90;;;;;;5075337;28;20090;-76
2022/05/13 06:16:37;;;;;;;12.03;4.20;;;13.10;99.90;;;;;;5055019;28;20044;-76
2022/05/13 06:19:03;;;;;;;12.63;4.67;;;13.20;99.90;;;;;;5048839;28;20044;-76
2022/05/13 06:21:31;;;;;;;11.80;4.77;;;13.30;99.90;;;;;;5070064;28;20055;-77
2022/05/13 06:23:57;;;;;;;9.93;4.00;;;13.40;99.90;;;;;;5072876;28;20059;-76
2022/05/13 06:26:23;;;;;;;11.77;3.93;;;13.40;99.90;;;;;;5068483;28;20041;-75
2022/05/13 06:28:50;;;;;;;11.00;4.20;;;13.50;99.90;;;;;;5060138;28;20590;-76
2022/05/13 06:31:18;;;;;;;14.93;3.87;;;13.50;99.90;;;;;;5065786;28;20475;-75
2022/05/13 06:33:44;;;;;;;11.00;4.07;;;13.60;99.90;;;;;;5048259;28;20049;-75
2022/05/13 06:36:11;;;;;;;10.10;4.10;;;13.60;99.90;;;;;;5064010;28;20049;-76
2022/05/13 06:38:37;;;;;;;11.23;4.27;;;13.70;99.90;;;;;;5062606;28;20055;-76
2022/05/13 06:41:02;;;;;;;10.83;3.80;;;13.70;99.90;;;;;;5063834;28;20040;-75
2022/05/13 06:43:29;;;;;;;11.70;4.13;;;13.70;99.90;;;;;;5061842;28;20716;-78
2022/05/13 06:45:55;;;;;;;13.70;3.93;;;13.80;99.90;;;;;;5066891;28;20049;-76
2022/05/13 06:48:21;;;;;;;8.40;3.57;;;13.90;99.90;;;;;;5074651;28;20036;-75
2022/05/13 06:50:47;;;;;;;9.20;3.87;;;14.00;99.90;;;;;;5052749;28;20075;-75
2022/05/13 06:53:18;;;;;;;11.30;4.10;;;14.00;99.90;;;;;;5070648;28;20048;-75
2022/05/13 06:55:44;;;;;;;8.80;3.83;;;14.20;99.90;;;;;;5060601;28;20049;-77
2022/05/13 06:58:11;;;;;;;11.07;3.27;;;14.20;99.90;;;;;;5076021;28;20437;-75
2022/05/13 07:00:38;;;;;;;10.17;4.67;;;14.30;99.90;;;;;;5072781;28;20079;-76
2022/05/13 07:03:04;;;;;;;8.17;3.80;;;14.30;99.90;;;;;;5049614;28;20111;-76
2022/05/13 07:05:30;;;;;;;8.87;3.77;;;14.40;99.90;;;;;;5068109;28;20052;-76
2022/05/13 07:07:56;;;;;;;9.17;3.63;;;14.40;99.90;;;;;;5040840;28;20239;-76
2022/05/13 07:10:22;;;;;;;12.57;3.63;;;14.30;99.90;;;;;;5069118;28;20040;-75
2022/05/13 07:12:47;;;;;;;12.03;4.20;;;14.30;99.90;;;;;;5070504;28;20671;-76
2022/05/13 07:15:16;;;;;;;13.67;4.63;;;14.30;99.90;;;;;;5067418;28;20041;-75
2022/05/13 07:17:43;;;;;;;10.23;4.60;;;14.30;99.90;;;;;;5053487;28;20422;-76
2022/05/13 07:20:10;;;;;;;14.77;3.60;;;14.30;99.90;;;;;;5059613;28;20041;-75
2022/05/13 07:22:36;;;;;;;9.00;2.87;;;14.20;99.90;;;;;;5071801;28;20044;-75
2022/05/13 07:25:03;;;;;;;8.40;2.70;;;14.10;99.90;;;;;;5072152;28;20052;-76
2022/05/13 07:27:29;;;;;;;7.90;2.60;;;14.10;99.90;;;;;;5075994;28;20306;-75
2022/05/13 07:29:55;;;;;;;8.33;3.17;;;14.10;99.90;;;;;;5057963;28;20051;-75
2022/05/13 07:32:20;;;;;;;7.73;2.20;;;14.10;99.90;;;;;;5066102;28;20057;-75
2022/05/13 07:34:46;;;;;;;4.77;2.37;;;14.10;99.90;;;;;;5074232;28;20056;-74
2022/05/13 07:37:12;;;;;;;7.17;2.30;;;14.20;99.90;;;;;;5070904;28;20045;-75
2022/05/13 07:42:22;;;;;;;7.10;3.13;;;14.50;99.90;;;;;;5071576;28;20056;-75
2022/05/13 07:44:48;;;;;;;7.87;2.67;;;14.70;99.90;;;;;;5075811;28;20044;-76
2022/05/13 07:47:17;;;;;;;5.67;2.70;;;14.80;99.90;;;;;;5075556;28;20036;-76
2022/05/13 07:49:43;;;;;;;8.43;2.20;;;14.90;99.90;;;;;;5076923;28;20044;-76
2022/05/13 07:52:10;;;;;;;6.73;2.23;;;15.10;99.90;;;;;;5072951;28;20334;-75
2022/05/13 07:54:36;;;;;;;6.77;2.43;;;15.40;99.90;;;;;;5074788;28;20079;-76
2022/05/13 07:57:03;;;;;;;9.47;2.40;;;15.70;99.90;;;;;;5072084;28;20119;-76
2022/05/13 07:59:32;;;;;;;5.80;2.55;;;15.90;99.90;;;;;;5075393;28;20084;-76
2022/05/13 08:01:58;;;;;;;3.87;1.93;;;16.20;99.90;;;;;;5067440;28;20052;-76
2022/05/13 08:04:24;;;;;;;5.63;1.80;;;16.30;99.90;;;;;;5075283;28;21177;-76
2022/05/13 08:06:50;;;;;;;5.13;1.92;;;16.40;99.90;;;;;;5070038;28;20096;-76
2022/05/13 08:09:17;;;;;;;7.10;2.03;;;16.40;99.90;;;;;;5074400;28;20505;-75
2022/05/13 08:11:44;;;;;;;4.63;1.70;;;16.30;99.90;;;;;;5068810;28;20045;-76
2022/05/13 08:14:10;;;;;;;3.67;1.30;;;16.10;99.90;;;;;;5065861;28;20044;-76
2022/05/13 08:16:36;;;;;;;4.07;2.13;;;16.10;99.90;;;;;;5071466;28;20113;-76
2022/05/13 08:19:03;;;;;;;4.00;1.92;;;16.20;99.90;;;;;;5066604;28;20044;-75
2022/05/13 08:21:29;;;;;;;3.03;1.60;;;16.00;99.90;;;;;;5068764;28;20343;-76
2022/05/13 08:23:55;;;;;;;5.80;1.92;;;15.90;99.90;;;;;;5049635;28;20114;-76
2022/05/13 08:26:20;;;;;;;4.47;1.60;;;15.80;99.90;;;;;;5060781;28;20051;-75
2022/05/13 08:28:46;;;;;;;6.47;2.00;;;15.70;99.90;;;;;;5068681;28;20032;-76
2022/05/13 08:31:14;;;;;;;4.95;1.90;;;15.70;99.90;;;;;;5071390;28;20504;-75
2022/05/13 08:33:40;;;;;;;4.68;1.70;;;15.70;99.90;;;;;;5074689;28;20052;-76
2022/05/13 08:36:06;;;;;;;3.03;1.80;;;15.60;99.90;;;;;;5074628;28;20055;-76
2022/05/13 08:38:36;;;;;;;3.83;1.75;;;15.50;99.90;;;;;;5074645;28;20041;-76
2022/05/13 08:41:17;;;;;;;5.18;1.80;;;15.40;99.90;;;;;;5062068;28;20397;-75
2022/05/13 08:43:47;;;;;;;5.40;1.85;;;15.40;99.90;;;;;;5072991;28;20044;-76
2022/05/13 08:46:33;;;;;;;4.85;1.90;;;15.30;99.90;;;;;;5073491;28;20048;-76
2022/05/13 08:49:29;;;;;;;4.43;1.52;;;15.30;99.90;;;;;;5077416;28;20045;-76
2022/05/13 08:51:55;;;;;;;6.95;1.80;;;15.40;99.90;;;;;;5068089;28;20457;-76
2022/05/13 08:54:26;;;;;;;3.80;1.73;;;15.50;99.90;;;;;;5067416;28;20060;-76
2022/05/13 08:57:00;;;;;;;5.72;1.63;;;15.60;99.90;;;;;;5073967;28;20112;-75
2022/05/13 08:59:42;;;;;;;6.45;1.85;;;15.70;99.90;;;;;;5066567;28;20071;-76
2022/05/13 09:02:36;;;;;;;3.00;1.48;;;15.90;99.90;;;;;;5065399;28;20044;-76
2022/05/13 09:05:10;;;;;;;6.53;1.70;;;16.30;99.90;;;;;;5073091;28;20053;-76
2022/05/13 09:07:37;;;;;;;4.15;1.48;;;16.40;99.90;;;;;;5072144;28;20040;-77
2022/05/13 09:10:06;;;;;;;4.97;1.73;;;16.40;99.90;;;;;;5069537;28;20037;-76
2022/05/13 09:12:45;;;;;;;5.40;1.77;;;16.20;99.90;;;;;;5073973;28;20102;-76
2022/05/13 09:15:40;;;;;;;6.40;1.90;;;16.00;99.90;;;;;;5072390;28;20059;-76
2022/05/13 09:18:19;;;;;;;5.10;1.70;;;15.90;99.90;;;;;;5074096;28;20041;-76
2022/05/13 09:20:51;;;;;;;5.75;1.52;;;15.70;99.90;;;;;;5073039;28;20041;-75
2022/05/13 09:23:19;;;;;;;5.20;1.85;;;15.70;99.90;;;;;;5070545;28;20060;-75
2022/05/13 09:26:09;;;;;;;7.45;1.90;;;16.10;99.90;;;;;;5072473;28;20053;-76
2022/05/13 09:28:37;;;;;;;5.22;1.70;;;16.40;99.90;;;;;;5059806;28;20119;-77
2022/05/13 09:31:21;;;;;;;4.85;1.88;;;16.50;99.90;;;;;;5073728;28;20066;-76
2022/05/13 09:33:48;;;;;;;6.63;1.45;;;16.40;99.90;;;;;;5060755;28;20059;-76
2022/05/13 09:36:19;;;;;;;3.08;1.70;;;16.40;99.90;;;;;;5061721;28;20122;-76
2022/05/13 09:38:50;;;;;;;4.82;1.83;;;16.30;99.90;;;;;;5073671;28;20048;-76
2022/05/13 09:41:28;;;;;;;6.95;1.40;;;16.30;99.90;;;;;;5073323;28;20575;-76
2022/05/13 09:43:57;;;;;;;7.18;1.90;;;16.20;99.90;;;;;;5073939;28;20044;-76
2022/05/13 09:46:35;;;;;;;4.65;1.67;;;16.10;99.90;;;;;;5068605;28;20128;-76
2022/05/13 09:49:29;;;;;;;3.45;1.80;;;16.10;99.90;;;;;;5059915;28;20064;-76
2022/05/13 09:52:06;;;;;;;6.72;2.03;;;15.90;99.90;;;;;;5068795;28;20063;-75
2022/05/13 09:54:34;;;;;;;3.58;1.65;;;15.80;99.90;;;;;;5069661;28;20064;-75
2022/05/13 09:57:11;;;;;;;4.43;1.70;;;15.70;99.90;;;;;;5072451;28;20056;-76
2022/05/13 09:59:53;;;;;;;6.53;2.00;;;15.70;99.90;;;;;;5065312;28;20040;-76
2022/05/13 10:02:19;;;;;;;3.83;1.70;;;15.70;99.90;;;;;;5075067;28;20057;-76
2022/05/13 10:04:50;;;;;;;6.07;1.73;;;15.90;99.90;;;;;;5070904;28;20402;-76
2022/05/13 10:07:16;;;;;;;6.22;1.60;;;16.10;99.90;;;;;;5072506;28;20104;-76
2022/05/13 10:15:42;;;;;;;3.65;1.52;;;15.80;99.90;;;;;;5071948;28;20052;-76
2022/05/13 10:18:17;;;;;;;5.60;1.50;;;15.70;99.90;;;;;;5073927;28;20082;-75
2022/05/13 10:20:45;;;;;;;2.50;1.42;;;15.80;99.90;;;;;;5062537;28;20044;-76
2022/05/13 10:23:28;;;;;;;2.35;1.23;;;16.00;99.90;;;;;;5073313;28;20052;-75
2022/05/13 10:26:02;;;;;;;3.90;1.17;;;16.20;99.90;;;;;;5064628;28;20044;-76
2022/05/13 10:28:39;;;;;;;2.80;1.30;;;16.50;99.90;;;;;;5071431;28;20105;-76
2022/05/13 10:31:18;;;;;;;7.43;1.50;;;16.90;99.90;;;;;;5073991;28;20430;-75
2022/05/13 10:33:58;;;;;;;4.22;1.40;;;17.30;99.90;;;;;;5064666;28;20041;-76
2022/05/13 10:36:42;;;;;;;5.57;1.25;;;17.50;99.90;;;;;;5073397;28;20044;-75
2022/05/13 10:39:10;;;;;;;4.03;1.40;;;17.50;99.90;;;;;;5071307;28;20044;-76
2022/05/13 10:41:43;;;;;;;5.43;1.58;;;17.30;99.90;;;;;;5072142;28;21133;-75
2022/05/13 10:44:45;;;;;;;7.05;1.38;;;17.10;99.90;;;;;;5053358;28;20056;-76
2022/05/13 10:47:16;;;;;;;4.88;1.75;;;16.80;99.90;;;;;;5067244;28;20060;-76
2022/05/13 10:49:43;;;;;;;3.60;1.60;;;16.70;99.90;;;;;;5066157;28;20063;-75
2022/05/13 10:52:41;;;;;;;5.07;1.70;;;16.60;99.90;;;;;;5066598;28;20052;-74
2022/05/13 10:55:15;;;;;;;3.85;1.23;;;16.60;99.90;;;;;;5065117;28;20347;-75
2022/05/13 10:57:46;;;;;;;6.25;1.60;;;16.60;99.90;;;;;;5073909;28;20056;-76
2022/05/13 11:00:17;;;;;;;4.15;1.48;;;16.60;99.90;;;;;;5072464;28;20135;-74
2022/05/13 11:02:48;;;;;;;3.17;1.30;;;16.60;99.90;;;;;;5068838;28;20045;-75
2022/05/13 11:05:22;;;;;;;;;;;16.50;99.90;;;;;;5070621;28;20063;-75
2022/05/13 11:08:14;;;;;;;4.75;1.33;;;16.40;99.90;;;;;;5061988;28;19931;-75
2022/05/13 11:10:59;;;;;;;5.95;1.50;;;16.50;99.90;;;;;;5072253;28;20068;-76
2022/05/13 11:13:48;;;;;;;4.35;1.50;;;16.60;99.90;;;;;;5072817;28;20048;-75
2022/05/13 11:16:32;;;;;;;5.25;1.50;;;16.70;99.90;;;;;;5072396;28;20044;-75
2022/05/13 11:19:09;;;;;;;4.88;1.50;;;16.70;99.90;;;;;;5071776;28;20040;-76
2022/05/13 11:21:50;;;;;;;7.25;1.48;;;16.90;99.90;;;;;;5071327;28;20061;-76
2022/05/13 11:27:41;;;;;;;5.18;1.02;;;17.20;99.90;;;;;;5073860;28;20045;-75
2022/05/13 11:30:14;;;;;;;5.43;1.52;;;17.00;99.90;;;;;;5070880;28;20155;-75
2022/05/13 11:33:15;;;;;;;2.65;1.35;;;16.90;99.90;;;;;;5071888;28;20036;-76
2022/05/13 11:36:01;;;;;;;5.22;1.50;;;16.90;99.90;;;;;;5064696;28;20066;-76
2022/05/13 11:38:54;;;;;;;4.40;1.60;;;16.80;99.90;;;;;;5074685;28;20052;-76
2022/05/13 11:41:23;;;;;;;3.45;1.48;;;17.10;99.90;;;;;;5076709;28;20497;-75
2022/05/13 11:43:59;;;;;;;7.00;1.60;;;17.40;99.90;;;;;;5076353;28;20058;-76
2022/05/13 11:46:28;;;;;;;5.38;1.60;;;17.50;99.90;;;;;;5074729;28;20098;-75
2022/05/13 11:49:08;;;;;;;4.32;1.40;;;17.40;99.90;;;;;;5077097;28;20291;-76
2022/05/13 11:51:35;;;;;;;2.80;1.45;;;17.40;99.90;;;;;;5075715;28;20051;-76
2022/05/13 11:54:01;;;;;;;3.25;1.50;;;17.40;99.90;;;;;;5068502;28;20079;-76
2022/05/13 11:56:29;;;;;;;4.47;1.63;;;17.30;99.90;;;;;;5059965;28;20060;-76
2022/05/13 11:59:01;;;;;;;5.68;1.60;;;17.40;99.90;;;;;;5073982;28;20055;-75
2022/05/13 12:01:38;;;;;;;;;;;17.50;99.90;;;;;;5076050;28;20044;-76
2022/05/13 12:04:13;;;;;;;4.88;1.92;;;17.50;99.90;;;;;;5062733;28;19952;-75
2022/05/13 12:06:51;;;;;;;5.80;1.50;;;17.50;99.90;;;;;;5068370;28;20045;-76
2022/05/13 12:09:40;;;;;;;2.75;1.50;;;18.00;99.90;;;;;;5064405;28;20074;-76
2022/05/13 12:12:33;;;;;;;5.78;2.20;;;18.30;99.90;;;;;;5069945;28;20049;-75
2022/05/13 12:15:04;;;;;;;6.30;2.15;;;18.30;99.90;;;;;;5060956;28;20052;-76
2022/05/13 12:17:33;;;;;;;5.20;1.83;;;18.00;99.90;;;;;;5065054;28;20056;-75
2022/05/13 12:20:22;;;;;;;5.65;2.17;;;17.80;99.90;;;;;;5074552;28;20113;-76
2022/05/13 12:23:20;;;;;;;5.72;1.77;;;17.60;99.90;;;;;;5075135;28;20458;-76
2022/05/13 12:25:52;;;;;;;5.57;2.00;;;17.80;99.90;;;;;;5073467;28;20083;-75
2022/05/13 12:28:18;;;;;;;7.22;1.92;;;18.20;99.90;;;;;;5066964;28;20040;-75
2022/05/13 12:30:46;;;;;;;6.13;1.88;;;18.30;99.90;;;;;;5074146;28;20052;-76
2022/05/13 12:33:23;;;;;;;6.22;1.67;;;18.30;99.90;;;;;;5072406;28;20066;-75
2022/05/13 12:39:10;;;;;;;2.92;1.40;;;18.20;99.90;;;;;;5069704;28;20079;-76
2022/05/13 12:41:42;;;;;;;4.95;1.90;;;18.50;99.60;;;;;;5067980;28;20056;-76
2022/05/13 12:44:15;;;;;;;;;;;18.80;98.10;;;;;;5070878;28;20041;-75
2022/05/13 12:47:13;;;;;;;6.57;1.50;;;18.70;93.90;;;;;;5073117;28;19931;-76
2022/05/13 12:50:18;;;;;;;5.40;1.92;;;18.40;96.90;;;;;;5037066;28;20053;-76
2022/05/13 12:52:44;;;;;;;5.03;1.70;;;18.20;99.90;;;;;;5079004;28;20049;-75
2022/05/13 12:55:21;;;;;;;5.63;1.85;;;18.00;99.90;;;;;;5063982;28;20583;-75
2022/05/13 12:58:00;;;;;;;6.70;1.63;;;18.00;99.90;;;;;;5058978;28;20556;-76
2022/05/13 13:00:35;;;;;;;6.05;1.98;;;18.30;99.90;;;;;;5072168;28;20049;-76
2022/05/13 13:03:05;;;;;;;2.88;1.70;;;18.50;99.90;;;;;;5075336;28;20065;-75
2022/05/13 13:05:33;;;;;;;5.13;1.50;;;18.40;99.90;;;;;;5071628;28;20063;-74
2022/05/13 13:08:16;;;;;;;5.13;1.38;;;18.40;98.90;;;;;;5066278;28;20596;-75
2022/05/13 13:11:11;;;;;;;5.22;1.70;;;18.30;98.70;;;;;;5063133;28;20567;-74
2022/05/13 13:13:47;;;;;;;4.18;1.50;;;18.00;98.80;;;;;;5060417;28;20131;-75
2022/05/13 13:16:44;;;;;;;6.47;1.80;;;17.90;99.90;;;;;;5073943;28;20052;-76
2022/05/13 13:19:10;;;;;;;4.32;1.45;;;17.90;98.40;;;;;;5057208;28;20060;-76
2022/05/13 13:21:36;;;;;;;3.72;1.40;;;17.90;99.90;;;;;;5071900;28;20052;-76
2022/05/13 13:24:07;;;;;;;2.55;1.50;;;18.00;99.90;;;;;;5074165;28;20047;-76
2022/05/13 13:26:34;;;;;;;5.03;1.60;;;18.00;99.30;;;;;;5074796;28;20052;-75
2022/05/13 13:29:00;;;;;;;5.95;1.65;;;17.90;98.80;;;;;;5073252;28;20198;-75
2022/05/13 13:31:31;;;;;;;6.00;1.98;;;18.10;98.80;;;;;;5073516;28;20542;-75
2022/05/13 13:33:57;;;;;;;4.10;1.70;;;18.10;96.40;;;;;;5072668;28;20060;-75
2022/05/13 13:36:32;;;;;;;5.20;1.60;;;18.00;98.10;;;;;;5073584;28;20059;-76